Time;durP1;ratioP1;P1;durP2;ratioP2;P2;SDS_P1;SDS_P2;PMS_P1;PMS_P2;Temp;Humidity;BMP_temperature;BMP_pressure;BME280_temperature;BME280_humidity;BME280_pressure;Samples;Min_cycle;Max_cycle;Signal;HPM_P1;HPM_P2
2022/03/24 00:01:21;;;;;;;22.77;14.40;;;;;;;;;;5052185;28;20485;-64
2022/03/24 00:03:47;;;;;;;24.07;14.93;;;;;;;;;;5052304;28;20424;-64
2022/03/24 00:06:14;;;;;;;22.50;14.17;;;;;;;;;;5052315;28;20512;-64
2022/03/24 00:08:40;;;;;;;23.67;14.07;;;;;;;;;;5051864;28;20466;-64
2022/03/24 00:11:06;;;;;;;20.70;13.13;;;;;;;;;;5052202;28;20475;-64
2022/03/24 00:13:32;;;;;;;21.80;14.80;;;;;;;;;;5052191;28;20498;-64
2022/03/24 00:16:00;;;;;;;20.13;13.67;;;;;;;;;;5052255;28;20441;-65
2022/03/24 00:18:29;;;;;;;23.13;14.90;;;;;;;;;;5051008;28;20413;-64
2022/03/24 00:20:55;;;;;;;25.83;15.60;;;;;;;;;;5052198;28;20527;-64
2022/03/24 00:23:21;;;;;;;25.53;15.70;;;;;;;;;;5052109;28;20772;-63
2022/03/24 00:25:47;;;;;;;25.03;15.50;;;;;;;;;;5052180;28;20401;-63
2022/03/24 00:28:13;;;;;;;23.60;14.33;;;;;;;;;;5052425;28;20409;-64
2022/03/24 00:30:39;;;;;;;21.87;13.97;;;;;;;;;;5055806;28;20417;-64
2022/03/24 00:33:05;;;;;;;21.73;14.30;;;;;;;;;;5055855;28;20405;-63
2022/03/24 00:35:32;;;;;;;20.47;13.53;;;;;;;;;;5055880;28;20500;-64
2022/03/24 00:37:58;;;;;;;19.20;14.03;;;;;;;;;;5055729;28;20421;-65
2022/03/24 00:40:24;;;;;;;20.57;13.37;;;;;;;;;;5055478;28;20547;-64
2022/03/24 00:42:50;;;;;;;26.60;13.47;;;;;;;;;;5055718;28;20406;-63
2022/03/24 00:45:18;;;;;;;28.93;14.60;;;;;;;;;;5055627;28;20468;-63
2022/03/24 00:47:45;;;;;;;25.10;13.90;;;;;;;;;;5055615;28;20515;-64
2022/03/24 00:50:12;;;;;;;17.30;12.50;;;;;;;;;;5055408;28;20421;-63
2022/03/24 00:52:41;;;;;;;24.20;14.60;;;;;;;;;;5055599;28;20425;-64
2022/03/24 00:55:15;;;;;;;23.43;14.07;;;;;;;;;;5054103;28;20978;-64
2022/03/24 00:57:42;;;;;;;22.87;15.10;;;;;;;;;;5054306;28;20422;-63
2022/03/24 01:00:09;;;;;;;23.67;14.07;;;;;;;;;;5055229;28;20472;-63
2022/03/24 01:02:38;;;;;;;21.77;12.77;;;;;;;;;;5055190;28;20453;-63
2022/03/24 01:05:07;;;;;;;21.40;14.10;;;;;;;;;;5055279;28;20444;-64
2022/03/24 01:07:34;;;;;;;21.73;13.67;;;;;;;;;;5054836;28;21046;-63
2022/03/24 01:10:00;;;;;;;34.60;14.90;;;;;;;;;;5055065;28;20768;-64
2022/03/24 01:12:26;;;;;;;24.60;15.57;;;;;;;;;;5055227;28;20402;-63
2022/03/24 01:14:52;;;;;;;23.37;14.60;;;;;;;;;;5055088;28;20414;-63
2022/03/24 01:17:18;;;;;;;25.03;13.83;;;;;;;;;;5055064;28;20900;-64
2022/03/24 01:19:44;;;;;;;22.97;14.37;;;;;;;;;;5055058;28;20402;-65
2022/03/24 01:22:10;;;;;;;22.80;13.63;;;;;;;;;;5054917;28;20414;-65
2022/03/24 01:24:40;;;;;;;24.57;14.53;;;;;;;;;;5053632;28;20453;-64
2022/03/24 01:27:06;;;;;;;20.40;13.30;;;;;;;;;;5054800;28;20456;-64
2022/03/24 01:29:32;;;;;;;22.47;14.47;;;;;;;;;;5054822;28;20543;-65
2022/03/24 01:31:59;;;;;;;20.10;13.50;;;;;;;;;;5053482;28;20496;-64
2022/03/24 01:34:26;;;;;;;23.77;14.10;;;;;;;;;;5054738;28;20425;-64
2022/03/24 01:36:52;;;;;;;24.23;14.10;;;;;;;;;;5054542;28;20413;-63
2022/03/24 01:39:18;;;;;;;23.53;14.50;;;;;;;;;;5054761;28;20481;-63
2022/03/24 01:41:47;;;;;;;22.53;14.83;;;;;;;;;;5053733;28;20558;-64
2022/03/24 01:44:14;;;;;;;28.23;15.23;;;;;;;;;;5054565;28;20893;-64
2022/03/24 01:46:58;;;;;;;20.20;14.13;;;;;;;;;;5054588;28;20410;-64
2022/03/24 01:49:25;;;;;;;23.90;15.27;;;;;;;;;;5054406;28;20413;-64
2022/03/24 01:51:51;;;;;;;26.40;15.20;;;;;;;;;;5052990;28;20936;-64
2022/03/24 01:54:18;;;;;;;24.20;14.00;;;;;;;;;;5053133;28;20513;-63
2022/03/24 01:56:44;;;;;;;24.57;13.70;;;;;;;;;;5054305;28;20401;-64
2022/03/24 01:59:11;;;;;;;22.63;14.37;;;;;;;;;;5054260;28;20425;-63
2022/03/24 02:01:37;;;;;;;22.43;14.87;;;;;;;;;;5054161;28;20514;-63
2022/03/24 02:04:04;;;;;;;24.87;14.07;;;;;;;;;;5054202;28;20413;-64
2022/03/24 02:06:34;;;;;;;22.37;13.90;;;;;;;;;;5054166;28;20438;-64
2022/03/24 02:09:00;;;;;;;22.60;14.20;;;;;;;;;;5053829;28;20984;-63
2022/03/24 02:11:27;;;;;;;23.63;14.07;;;;;;;;;;5053916;28;20410;-64
2022/03/24 02:13:54;;;;;;;27.93;15.70;;;;;;;;;;5054027;28;20417;-63
2022/03/24 02:16:20;;;;;;;25.07;13.63;;;;;;;;;;5053980;28;20410;-64
2022/03/24 02:18:46;;;;;;;22.93;14.40;;;;;;;;;;5052625;28;20421;-64
2022/03/24 02:21:16;;;;;;;25.97;14.60;;;;;;;;;;5053673;28;20812;-64
2022/03/24 02:23:44;;;;;;;22.60;13.83;;;;;;;;;;5053596;28;20935;-64
2022/03/24 02:26:10;;;;;;;22.87;13.63;;;;;;;;;;5053744;28;20406;-64
2022/03/24 02:28:36;;;;;;;22.07;13.60;;;;;;;;;;5053766;28;20405;-64
2022/03/24 02:31:04;;;;;;;23.13;13.67;;;;;;;;;;5053624;28;20424;-64
2022/03/24 02:33:30;;;;;;;22.50;14.53;;;;;;;;;;5053640;28;20415;-63
2022/03/24 02:35:56;;;;;;;22.70;14.53;;;;;;;;;;5053389;28;20504;-64
2022/03/24 02:38:22;;;;;;;22.43;14.43;;;;;;;;;;5053362;28;20421;-64
2022/03/24 02:40:52;;;;;;;25.90;13.63;;;;;;;;;;5053376;28;20469;-65
2022/03/24 02:43:20;;;;;;;23.03;13.67;;;;;;;;;;5053499;28;20398;-64
2022/03/24 02:45:50;;;;;;;23.07;13.70;;;;;;;;;;5053338;28;20417;-64
2022/03/24 02:48:16;;;;;;;21.57;13.60;;;;;;;;;;5053175;28;20410;-64
2022/03/24 02:50:43;;;;;;;22.30;13.20;;;;;;;;;;5053194;28;20413;-64
2022/03/24 02:53:09;;;;;;;27.90;14.80;;;;;;;;;;5053057;28;20389;-63
2022/03/24 02:55:35;;;;;;;25.03;13.80;;;;;;;;;;5053124;28;20492;-63
2022/03/24 02:58:02;;;;;;;20.97;13.80;;;;;;;;;;5051815;28;20906;-64
2022/03/24 03:00:28;;;;;;;25.70;14.53;;;;;;;;;;5052835;28;20458;-64
2022/03/24 03:02:54;;;;;;;25.93;15.37;;;;;;;;;;5053067;28;20507;-63
2022/03/24 03:05:21;;;;;;;28.80;14.67;;;;;;;;;;5053085;28;20416;-64
2022/03/24 03:07:48;;;;;;;23.33;13.30;;;;;;;;;;5052785;28;20477;-63
2022/03/24 03:10:14;;;;;;;28.97;14.37;;;;;;;;;;5051641;28;20512;-64
2022/03/24 03:12:44;;;;;;;21.47;14.30;;;;;;;;;;5052868;28;20417;-64
2022/03/24 03:15:10;;;;;;;23.43;13.67;;;;;;;;;;5052814;28;20412;-64
2022/03/24 03:17:37;;;;;;;24.50;13.97;;;;;;;;;;5052913;28;20426;-64
2022/03/24 03:20:05;;;;;;;23.53;14.70;;;;;;;;;;5052847;28;20737;-64
2022/03/24 03:22:32;;;;;;;24.40;14.40;;;;;;;;;;5052771;28;20463;-64
2022/03/24 03:24:58;;;;;;;25.27;14.30;;;;;;;;;;5052791;28;20413;-64
2022/03/24 03:27:24;;;;;;;24.50;15.20;;;;;;;;;;5052798;28;20413;-64
2022/03/24 03:29:50;;;;;;;21.17;14.80;;;;;;;;;;5052583;28;20429;-64
2022/03/24 03:32:16;;;;;;;21.87;13.80;;;;;;;;;;5052587;28;20444;-64
2022/03/24 03:34:43;;;;;;;25.53;15.60;;;;;;;;;;5052656;28;20397;-64
2022/03/24 03:37:09;;;;;;;32.83;15.43;;;;;;;;;;5052541;28;20905;-68
2022/03/24 03:39:35;;;;;;;24.47;14.37;;;;;;;;;;5052748;28;20444;-68
2022/03/24 03:42:01;;;;;;;25.10;15.13;;;;;;;;;;5052369;28;20468;-64
2022/03/24 03:44:27;;;;;;;28.83;14.27;;;;;;;;;;5052512;28;20402;-63
2022/03/24 03:46:54;;;;;;;27.90;16.23;;;;;;;;;;5052551;28;20406;-65
2022/03/24 03:49:23;;;;;;;20.50;13.70;;;;;;;;;;5051061;28;20408;-63
2022/03/24 03:51:49;;;;;;;22.17;13.90;;;;;;;;;;5052473;28;20413;-63
2022/03/24 03:54:15;;;;;;;26.23;14.93;;;;;;;;;;5052431;28;20500;-63
2022/03/24 03:56:42;;;;;;;25.83;15.80;;;;;;;;;;5052389;28;20444;-66
2022/03/24 03:59:08;;;;;;;23.87;15.07;;;;;;;;;;5052412;28;20513;-65
2022/03/24 04:01:36;;;;;;;23.87;14.57;;;;;;;;;;5052243;28;20557;-68
2022/03/24 04:04:04;;;;;;;22.70;15.20;;;;;;;;;;5053973;28;20478;-68
2022/03/24 04:06:30;;;;;;;22.87;14.67;;;;;;;;;;5056336;28;20411;-67
2022/03/24 04:08:56;;;;;;;25.87;15.03;;;;;;;;;;5055857;28;20794;-63
2022/03/24 04:11:22;;;;;;;27.70;14.93;;;;;;;;;;5056187;28;20493;-63
2022/03/24 04:13:48;;;;;;;22.17;14.43;;;;;;;;;;5056209;28;20500;-63
2022/03/24 04:16:14;;;;;;;23.50;14.70;;;;;;;;;;5056127;28;20493;-64
2022/03/24 04:18:44;;;;;;;28.73;15.33;;;;;;;;;;5055974;28;20399;-64
2022/03/24 04:21:11;;;;;;;23.60;15.07;;;;;;;;;;5055998;28;20548;-64
2022/03/24 04:23:37;;;;;;;23.43;14.40;;;;;;;;;;5056033;28;20406;-63
2022/03/24 04:26:04;;;;;;;25.30;16.00;;;;;;;;;;5056014;28;20413;-64
2022/03/24 04:28:30;;;;;;;24.77;14.90;;;;;;;;;;5055890;28;20427;-63
2022/03/24 04:30:56;;;;;;;26.97;14.90;;;;;;;;;;5055720;28;20402;-64
2022/03/24 04:33:22;;;;;;;22.63;14.30;;;;;;;;;;5055844;28;20440;-63
2022/03/24 04:35:48;;;;;;;27.33;15.37;;;;;;;;;;5055731;28;20410;-63
2022/03/24 04:38:14;;;;;;;26.40;15.43;;;;;;;;;;5055688;28;20439;-64
2022/03/24 04:40:40;;;;;;;28.10;16.23;;;;;;;;;;5055678;28;20472;-63
2022/03/24 04:43:07;;;;;;;25.93;15.27;;;;;;;;;;5055528;28;20487;-66
2022/03/24 04:45:34;;;;;;;22.63;14.87;;;;;;;;;;5055687;28;20405;-63
2022/03/24 04:48:00;;;;;;;27.73;15.33;;;;;;;;;;5055158;28;20404;-64
2022/03/24 04:50:27;;;;;;;23.00;14.47;;;;;;;;;;5052637;28;20429;-63
2022/03/24 04:52:53;;;;;;;23.60;14.20;;;;;;;;;;5054920;28;20443;-64
2022/03/24 04:55:19;;;;;;;23.00;14.50;;;;;;;;;;5054162;28;20431;-64
2022/03/24 04:57:46;;;;;;;27.73;14.70;;;;;;;;;;5054919;28;20407;-63
2022/03/24 05:00:12;;;;;;;26.97;14.90;;;;;;;;;;5055237;28;20526;-65
2022/03/24 05:02:39;;;;;;;26.47;14.67;;;;;;;;;;5054206;28;20543;-63
2022/03/24 05:05:06;;;;;;;25.67;15.67;;;;;;;;;;5054090;28;20482;-63
2022/03/24 05:07:32;;;;;;;29.53;15.70;;;;;;;;;;5054910;28;20970;-64
2022/03/24 05:09:58;;;;;;;24.10;14.80;;;;;;;;;;5055193;28;20463;-64
2022/03/24 05:12:24;;;;;;;23.00;14.73;;;;;;;;;;5055157;28;20410;-64
2022/03/24 05:14:50;;;;;;;23.27;13.07;;;;;;;;;;5054181;28;20450;-64
2022/03/24 05:17:17;;;;;;;24.07;14.70;;;;;;;;;;5054789;28;20424;-64
2022/03/24 05:19:48;;;;;;;22.80;14.20;;;;;;;;;;5055176;28;20404;-64
2022/03/24 05:22:14;;;;;;;24.83;14.30;;;;;;;;;;5055114;28;20493;-64
2022/03/24 05:24:41;;;;;;;23.13;15.60;;;;;;;;;;5055075;28;20402;-64
2022/03/24 05:27:07;;;;;;;24.07;14.70;;;;;;;;;;5054928;28;20405;-62
2022/03/24 05:29:33;;;;;;;21.90;15.30;;;;;;;;;;5054969;28;20463;-65
2022/03/24 05:31:59;;;;;;;22.87;14.00;;;;;;;;;;5054803;28;20423;-66
2022/03/24 05:34:26;;;;;;;27.43;15.63;;;;;;;;;;5054971;28;20438;-63
2022/03/24 05:36:53;;;;;;;25.30;14.97;;;;;;;;;;5054669;28;20522;-66
2022/03/24 05:39:19;;;;;;;24.90;14.80;;;;;;;;;;5054769;28;20410;-66
2022/03/24 05:41:45;;;;;;;28.17;14.97;;;;;;;;;;5054408;28;20547;-66
2022/03/24 05:44:11;;;;;;;22.47;14.00;;;;;;;;;;5054832;28;20423;-66
2022/03/24 05:46:41;;;;;;;25.53;14.03;;;;;;;;;;5054480;28;20419;-66
2022/03/24 05:49:08;;;;;;;24.87;14.70;;;;;;;;;;5053213;28;21038;-66
2022/03/24 05:51:34;;;;;;;24.40;14.30;;;;;;;;;;5054715;28;20913;-67
2022/03/24 05:54:01;;;;;;;22.43;14.83;;;;;;;;;;5054575;28;20481;-69
2022/03/24 05:56:27;;;;;;;26.37;14.70;;;;;;;;;;5053184;28;21036;-66
2022/03/24 05:58:55;;;;;;;26.00;14.83;;;;;;;;;;5054425;28;20423;-66
2022/03/24 06:01:23;;;;;;;26.40;14.97;;;;;;;;;;5054314;28;20972;-66
2022/03/24 06:03:51;;;;;;;22.10;14.57;;;;;;;;;;5054290;28;20410;-66
2022/03/24 06:06:17;;;;;;;23.03;14.50;;;;;;;;;;5054400;28;20555;-67
2022/03/24 06:08:44;;;;;;;25.03;15.07;;;;;;;;;;5054061;28;20485;-68
2022/03/24 06:11:13;;;;;;;22.83;14.40;;;;;;;;;;5053130;28;20519;-66
2022/03/24 06:13:43;;;;;;;24.57;14.50;;;;;;;;;;5053070;28;20466;-67
2022/03/24 06:16:09;;;;;;;27.37;14.33;;;;;;;;;;5054297;28;20412;-69
2022/03/24 06:18:39;;;;;;;25.30;15.97;;;;;;;;;;5054156;28;20441;-68
2022/03/24 06:21:05;;;;;;;27.33;15.17;;;;;;;;;;5054162;28;20568;-71
2022/03/24 06:23:32;;;;;;;28.20;16.83;;;;;;;;;;5054198;28;20406;-68
2022/03/24 06:25:58;;;;;;;23.00;14.70;;;;;;;;;;5054164;28;20409;-69
2022/03/24 06:28:24;;;;;;;26.83;16.80;;;;;;;;;;5053751;28;20414;-68
2022/03/24 06:30:51;;;;;;;23.83;14.17;;;;;;;;;;5053796;28;20433;-65
2022/03/24 06:33:17;;;;;;;25.70;16.93;;;;;;;;;;5053881;28;20418;-63
2022/03/24 06:35:47;;;;;;;31.47;15.83;;;;;;;;;;5053876;28;20497;-64
2022/03/24 06:38:13;;;;;;;24.37;15.50;;;;;;;;;;5053696;28;20859;-65
2022/03/24 06:40:40;;;;;;;25.90;15.77;;;;;;;;;;5053552;28;20444;-64
2022/03/24 06:43:06;;;;;;;29.43;16.43;;;;;;;;;;5053595;28;20421;-64
2022/03/24 06:45:33;;;;;;;25.50;15.40;;;;;;;;;;5053656;28;20501;-64
2022/03/24 06:47:59;;;;;;;28.50;16.70;;;;;;;;;;5053544;28;20420;-65
2022/03/24 06:50:25;;;;;;;29.40;15.77;;;;;;;;;;5053563;28;20405;-66
2022/03/24 06:52:51;;;;;;;26.40;15.83;;;;;;;;;;5053333;28;20425;-65
2022/03/24 06:55:17;;;;;;;26.43;15.80;;;;;;;;;;5053524;28;20414;-64
2022/03/24 06:57:44;;;;;;;22.80;16.10;;;;;;;;;;5053605;28;20432;-64
2022/03/24 07:00:13;;;;;;;25.17;16.47;;;;;;;;;;5053337;28;20409;-65
2022/03/24 07:02:40;;;;;;;25.80;16.13;;;;;;;;;;5053356;28;20421;-63
2022/03/24 07:05:08;;;;;;;27.23;16.80;;;;;;;;;;5053318;28;20497;-65
2022/03/24 07:07:34;;;;;;;29.80;17.20;;;;;;;;;;5052848;28;20556;-65
2022/03/24 07:10:00;;;;;;;24.73;16.30;;;;;;;;;;5053242;28;20414;-69
2022/03/24 07:12:26;;;;;;;31.90;16.53;;;;;;;;;;5053307;28;20564;-69
2022/03/24 07:14:52;;;;;;;28.33;16.20;;;;;;;;;;5053174;28;20442;-66
2022/03/24 07:17:19;;;;;;;27.23;16.27;;;;;;;;;;5053202;28;20433;-65
2022/03/24 07:19:45;;;;;;;29.33;16.73;;;;;;;;;;5052895;28;20772;-65
2022/03/24 07:22:11;;;;;;;26.37;16.60;;;;;;;;;;5052964;28;20483;-63
2022/03/24 07:24:38;;;;;;;31.07;18.37;;;;;;;;;;5053132;28;20402;-67
2022/03/24 07:27:05;;;;;;;39.13;18.77;;;;;;;;;;5053122;28;20463;-63
2022/03/24 07:29:31;;;;;;;29.47;18.03;;;;;;;;;;5052930;28;20468;-64
2022/03/24 07:31:57;;;;;;;24.93;17.03;;;;;;;;;;5051635;28;20820;-62
2022/03/24 07:34:24;;;;;;;30.47;17.40;;;;;;;;;;5052990;28;20454;-65
2022/03/24 07:36:49;;;;;;;34.50;18.13;;;;;;;;;;5052868;28;20479;-65
2022/03/24 07:39:15;;;;;;;29.33;18.00;;;;;;;;;;5052224;28;20410;-67
2022/03/24 07:41:41;;;;;;;32.50;17.63;;;;;;;;;;5052700;28;20464;-65
2022/03/24 07:44:08;;;;;;;34.93;19.27;;;;;;;;;;5051476;28;20409;-66
2022/03/24 07:46:34;;;;;;;31.17;18.00;;;;;;;;;;5052854;28;20606;-63
2022/03/24 07:49:00;;;;;;;37.77;17.80;;;;;;;;;;5052872;28;20444;-65
2022/03/24 07:51:26;;;;;;;31.43;19.00;;;;;;;;;;5051478;28;20461;-65
2022/03/24 07:53:54;;;;;;;30.97;18.67;;;;;;;;;;5052927;28;20674;-65
2022/03/24 07:56:24;;;;;;;32.90;18.40;;;;;;;;;;5052686;28;20556;-65
2022/03/24 07:58:50;;;;;;;30.20;18.80;;;;;;;;;;5052847;28;20396;-64
2022/03/24 08:01:24;;;;;;;28.90;19.10;;;;;;;;;;5052660;28;20472;-65
2022/03/24 08:03:52;;;;;;;31.90;20.70;;;;;;;;;;5051435;28;20422;-66
2022/03/24 08:06:18;;;;;;;31.67;18.47;;;;;;;;;;5051226;28;20418;-69
2022/03/24 08:08:44;;;;;;;32.63;19.10;;;;;;;;;;5052232;28;20461;-67
2022/03/24 08:11:10;;;;;;;31.83;19.60;;;;;;;;;;5052359;28;20498;-70
2022/03/24 08:13:36;;;;;;;33.20;18.87;;;;;;;;;;5052444;28;20402;-65
2022/03/24 08:16:03;;;;;;;34.53;19.43;;;;;;;;;;5052613;28;20420;-65
2022/03/24 08:18:29;;;;;;;40.63;19.27;;;;;;;;;;5052442;28;20437;-69
2022/03/24 08:20:55;;;;;;;31.63;20.33;;;;;;;;;;5052343;28;20512;-66
2022/03/24 08:23:21;;;;;;;33.47;19.17;;;;;;;;;;5052591;28;20409;-69
2022/03/24 08:25:47;;;;;;;35.53;19.93;;;;;;;;;;5052647;28;20425;-70
2022/03/24 08:28:13;;;;;;;40.10;23.73;;;;;;;;;;5052458;28;20405;-66
2022/03/24 08:30:40;;;;;;;35.73;19.40;;;;;;;;;;5050983;28;20916;-64
2022/03/24 08:33:06;;;;;;;39.73;21.13;;;;;;;;;;5052739;28;20961;-65
2022/03/24 08:35:32;;;;;;;33.20;20.27;;;;;;;;;;5052564;28;20483;-66
2022/03/24 08:37:59;;;;;;;39.40;20.10;;;;;;;;;;5052407;28;20471;-69
2022/03/24 08:40:26;;;;;;;31.10;19.17;;;;;;;;;;5052396;28;20456;-69
2022/03/24 08:42:52;;;;;;;36.33;21.00;;;;;;;;;;5052401;28;20501;-68
2022/03/24 08:45:18;;;;;;;35.10;20.53;;;;;;;;;;5052620;28;20417;-69
2022/03/24 08:47:44;;;;;;;34.00;18.77;;;;;;;;;;5052254;28;20417;-71
2022/03/24 08:50:11;;;;;;;35.63;20.10;;;;;;;;;;5053911;28;20414;-67
2022/03/24 08:52:38;;;;;;;32.50;20.00;;;;;;;;;;5055957;28;20405;-66
2022/03/24 08:55:05;;;;;;;34.30;21.77;;;;;;;;;;5055949;28;20935;-65
2022/03/24 08:57:31;;;;;;;38.77;18.40;;;;;;;;;;5055832;28;20421;-65
2022/03/24 09:00:01;;;;;;;41.30;21.17;;;;;;;;;;5055957;28;20417;-69
2022/03/24 09:02:28;;;;;;;35.23;19.97;;;;;;;;;;5055683;28;20479;-63
2022/03/24 09:04:54;;;;;;;37.67;21.50;;;;;;;;;;5055676;28;20401;-65
2022/03/24 09:07:20;;;;;;;31.93;20.07;;;;;;;;;;5053967;28;21008;-65
2022/03/24 09:09:46;;;;;;;38.80;20.23;;;;;;;;;;5055493;28;20408;-64
2022/03/24 09:12:13;;;;;;;30.63;19.00;;;;;;;;;;5055512;28;20768;-64
2022/03/24 09:14:39;;;;;;;40.70;21.00;;;;;;;;;;5055353;28;20414;-65
2022/03/24 09:17:06;;;;;;;31.80;19.93;;;;;;;;;;5054174;28;20425;-64
2022/03/24 09:19:33;;;;;;;38.50;19.60;;;;;;;;;;5055246;28;20401;-68
2022/03/24 09:21:59;;;;;;;34.33;18.80;;;;;;;;;;5055226;28;20473;-65
2022/03/24 09:24:26;;;;;;;31.00;19.50;;;;;;;;;;5055094;28;20416;-64
2022/03/24 09:26:52;;;;;;;33.73;19.63;;;;;;;;;;5055014;28;20492;-62
2022/03/24 09:29:18;;;;;;;32.63;19.30;;;;;;;;;;5055245;28;20424;-64
2022/03/24 09:31:44;;;;;;;69.90;38.60;;;;;;;;;;5054889;28;20516;-65
2022/03/24 09:34:10;;;;;;;39.60;22.50;;;;;;;;;;5055114;28;20406;-64
2022/03/24 09:36:36;;;;;;;37.13;19.93;;;;;;;;;;5055204;28;20543;-66
2022/03/24 09:39:04;;;;;;;38.90;19.87;;;;;;;;;;5055061;28;20406;-63
2022/03/24 09:41:30;;;;;;;35.53;20.00;;;;;;;;;;5054818;28;20839;-63
2022/03/24 09:43:58;;;;;;;32.60;19.13;;;;;;;;;;5054804;28;20459;-66
2022/03/24 09:46:26;;;;;;;34.53;19.53;;;;;;;;;;5054811;28;20445;-64
2022/03/24 09:48:52;;;;;;;38.33;19.30;;;;;;;;;;5054750;28;20409;-64
2022/03/24 09:51:18;;;;;;;28.20;17.57;;;;;;;;;;5054724;28;20416;-68
2022/03/24 09:53:45;;;;;;;38.83;19.83;;;;;;;;;;5054850;28;20413;-65
2022/03/24 09:56:11;;;;;;;35.30;20.30;;;;;;;;;;5053470;28;20462;-65
2022/03/24 09:58:37;;;;;;;35.10;20.10;;;;;;;;;;5054642;28;20508;-64
2022/03/24 10:01:03;;;;;;;32.70;20.60;;;;;;;;;;5053941;28;20469;-67
2022/03/24 10:03:29;;;;;;;29.20;20.07;;;;;;;;;;5054444;28;20412;-66
2022/03/24 10:06:04;;;;;;;29.70;19.37;;;;;;;;;;5054408;28;20402;-65
2022/03/24 10:08:30;;;;;;;29.73;19.30;;;;;;;;;;5054010;28;20971;-66
2022/03/24 10:10:57;;;;;;;37.53;21.10;;;;;;;;;;5054224;28;20417;-67
2022/03/24 10:13:24;;;;;;;28.70;18.50;;;;;;;;;;5053182;28;20426;-66
2022/03/24 10:15:50;;;;;;;32.40;18.70;;;;;;;;;;5053216;28;20429;-67
2022/03/24 10:18:17;;;;;;;28.07;18.83;;;;;;;;;;5054267;28;20748;-64
2022/03/24 10:20:43;;;;;;;26.40;17.50;;;;;;;;;;5052828;28;20980;-66
2022/03/24 10:23:12;;;;;;;28.87;18.63;;;;;;;;;;5054260;28;20440;-67
2022/03/24 10:25:39;;;;;;;31.60;19.40;;;;;;;;;;5054194;28;20737;-66
2022/03/24 10:28:05;;;;;;;32.00;19.03;;;;;;;;;;5054186;28;20519;-67
2022/03/24 10:30:49;;;;;;;30.33;19.50;;;;;;;;;;5054076;28;20604;-65
2022/03/24 10:33:31;;;;;;;32.03;20.03;;;;;;;;;;5054145;28;20771;-68
2022/03/24 10:36:06;;;;;;;31.43;19.60;;;;;;;;;;5054223;28;20402;-67
2022/03/24 10:38:33;;;;;;;32.03;20.83;;;;;;;;;;5053989;28;20471;-65
2022/03/24 10:41:11;;;;;;;30.97;19.90;;;;;;;;;;5053686;28;20459;-65
2022/03/24 10:43:37;;;;;;;30.60;20.07;;;;;;;;;;5053966;28;20409;-64
2022/03/24 10:46:12;;;;;;;30.97;19.53;;;;;;;;;;5035922;28;20413;-66
2022/03/24 10:48:38;;;;;;;31.63;20.47;;;;;;;;;;5053637;28;20546;-65
2022/03/24 10:51:04;;;;;;;32.10;21.23;;;;;;;;;;5053697;28;20557;-64
2022/03/24 10:53:37;;;;;;;27.30;18.57;;;;;;;;;;5053714;28;20414;-65
2022/03/24 10:56:07;;;;;;;30.60;19.60;;;;;;;;;;5053601;28;20500;-66
2022/03/24 10:58:39;;;;;;;29.23;19.60;;;;;;;;;;5053544;28;20406;-66
2022/03/24 11:01:07;;;;;;;27.83;17.83;;;;;;;;;;5053321;28;20465;-66
2022/03/24 11:03:34;;;;;;;27.30;18.40;;;;;;;;;;5053378;28;20410;-65
2022/03/24 11:06:13;;;;;;;32.50;19.60;;;;;;;;;;5053418;28;20413;-68
2022/03/24 11:08:40;;;;;;;35.03;18.40;;;;;;;;;;5053088;28;20483;-64
2022/03/24 11:11:07;;;;;;;33.57;19.57;;;;;;;;;;5053371;28;20420;-65
2022/03/24 11:13:47;;;;;;;28.97;20.47;;;;;;;;;;5052113;28;20435;-64
2022/03/24 11:16:14;;;;;;;33.23;21.63;;;;;;;;;;5053184;28;20409;-64
2022/03/24 11:18:41;;;;;;;29.00;20.40;;;;;;;;;;5053216;28;20414;-64
2022/03/24 11:21:20;;;;;;;30.10;18.70;;;;;;;;;;5053014;28;20489;-68
2022/03/24 11:23:46;;;;;;;32.83;20.33;;;;;;;;;;5053094;28;20429;-63
2022/03/24 11:26:13;;;;;;;28.73;19.67;;;;;;;;;;5053167;28;20421;-65
2022/03/24 11:28:39;;;;;;;25.20;17.40;;;;;;;;;;5053372;28;20742;-65
2022/03/24 11:31:06;;;;;;;25.77;18.40;;;;;;;;;;5053095;28;20405;-66
2022/03/24 11:33:40;;;;;;;29.73;18.40;;;;;;;;;;5053047;28;20485;-65
2022/03/24 11:36:07;;;;;;;25.27;16.60;;;;;;;;;;5053041;28;20441;-64
2022/03/24 11:38:34;;;;;;;31.37;17.00;;;;;;;;;;5052922;28;20421;-65
2022/03/24 11:41:05;;;;;;;30.17;18.57;;;;;;;;;;5052872;28;20456;-65
2022/03/24 11:43:31;;;;;;;23.87;17.93;;;;;;;;;;5053035;28;20474;-64
2022/03/24 11:46:03;;;;;;;27.37;17.70;;;;;;;;;;5053179;28;20398;-64
2022/03/24 11:48:33;;;;;;;28.03;18.07;;;;;;;;;;5053008;28;20413;-64
2022/03/24 11:51:04;;;;;;;31.57;18.97;;;;;;;;;;5052919;28;20768;-66
2022/03/24 11:53:35;;;;;;;30.20;16.57;;;;;;;;;;5052903;28;20414;-64
2022/03/24 11:56:03;;;;;;;24.07;15.93;;;;;;;;;;5052749;28;20406;-63
2022/03/24 11:58:36;;;;;;;25.37;16.33;;;;;;;;;;5052832;28;20405;-64
2022/03/24 12:01:38;;;;;;;20.57;16.00;;;;;;;;;;5052626;28;20539;-63
2022/03/24 12:04:12;;;;;;;21.90;14.57;;;;;;;;;;5050450;28;20417;-66
2022/03/24 12:06:43;;;;;;;22.50;15.67;;;;;;;;;;5052201;28;20410;-64
2022/03/24 12:09:15;;;;;;;23.70;15.07;;;;;;;;;;5051311;28;20469;-65
2022/03/24 12:11:53;;;;;;;22.03;15.63;;;;;;;;;;5052800;28;20406;-66
2022/03/24 12:14:20;;;;;;;25.10;16.50;;;;;;;;;;5052661;28;20437;-65
2022/03/24 12:16:48;;;;;;;26.43;15.83;;;;;;;;;;5052685;28;20911;-65
2022/03/24 12:19:33;;;;;;;23.30;15.50;;;;;;;;;;5052606;28;20406;-64
2022/03/24 12:21:59;;;;;;;22.93;16.83;;;;;;;;;;5052506;28;20465;-65
2022/03/24 12:24:34;;;;;;;21.93;15.90;;;;;;;;;;5053099;28;20402;-66
2022/03/24 12:27:04;;;;;;;24.23;15.77;;;;;;;;;;5056411;28;20392;-65
2022/03/24 12:29:30;;;;;;;23.77;15.10;;;;;;;;;;5056285;28;20504;-64
2022/03/24 12:32:05;;;;;;;26.20;16.23;;;;;;;;;;5056365;28;20405;-65
2022/03/24 12:34:37;;;;;;;22.97;16.10;;;;;;;;;;5055082;28;20471;-63
2022/03/24 12:37:04;;;;;;;23.30;17.13;;;;;;;;;;5056252;28;20924;-64
2022/03/24 12:39:31;;;;;;;21.90;16.00;;;;;;;;;;5056379;28;20409;-65
2022/03/24 12:42:13;;;;;;;21.83;14.40;;;;;;;;;;5056091;28;20476;-65
2022/03/24 12:44:52;;;;;;;23.83;15.00;;;;;;;;;;5056051;28;20508;-66
2022/03/24 12:47:35;;;;;;;25.63;16.17;;;;;;;;;;5055840;28;20467;-66
2022/03/24 12:50:16;;;;;;;21.43;15.40;;;;;;;;;;5055922;28;20501;-65
2022/03/24 12:52:52;;;;;;;23.07;14.30;;;;;;;;;;5056016;28;20406;-66
2022/03/24 12:55:21;;;;;;;28.37;16.50;;;;;;;;;;5055940;28;20480;-66
2022/03/24 12:58:02;;;;;;;24.43;16.03;;;;;;;;;;5055854;28;20479;-64
2022/03/24 13:00:35;;;;;;;23.87;16.47;;;;;;;;;;5055671;28;20476;-64
2022/03/24 13:03:03;;;;;;;22.83;14.43;;;;;;;;;;5054513;28;20921;-65
2022/03/24 13:05:30;;;;;;;24.13;16.63;;;;;;;;;;5055716;28;20799;-63
2022/03/24 13:07:57;;;;;;;20.30;15.60;;;;;;;;;;5055306;28;20480;-66
2022/03/24 13:10:24;;;;;;;20.03;13.93;;;;;;;;;;5055296;28;20448;-64
2022/03/24 13:12:53;;;;;;;23.37;15.60;;;;;;;;;;5055541;28;20475;-65
2022/03/24 13:15:26;;;;;;;21.27;15.93;;;;;;;;;;5054142;28;20409;-64
2022/03/24 13:17:53;;;;;;;21.73;16.20;;;;;;;;;;5055555;28;20758;-65
2022/03/24 13:20:20;;;;;;;23.97;14.13;;;;;;;;;;5055270;28;20386;-64
2022/03/24 13:22:48;;;;;;;23.23;14.40;;;;;;;;;;5055419;28;20426;-64
2022/03/24 13:25:15;;;;;;;23.63;14.77;;;;;;;;;;5055529;28;20409;-64
2022/03/24 13:27:43;;;;;;;23.67;13.50;;;;;;;;;;5055267;28;20401;-64
2022/03/24 13:30:10;;;;;;;21.67;15.43;;;;;;;;;;5055508;28;20402;-65
2022/03/24 13:32:37;;;;;;;22.20;15.53;;;;;;;;;;5055069;28;20439;-63
2022/03/24 13:35:03;;;;;;;20.93;14.80;;;;;;;;;;5055132;28;20504;-64
2022/03/24 13:37:37;;;;;;;23.53;15.17;;;;;;;;;;5054051;28;20490;-66
2022/03/24 13:40:04;;;;;;;19.10;12.87;;;;;;;;;;5055089;28;20907;-65
2022/03/24 13:42:30;;;;;;;21.80;15.20;;;;;;;;;;5054853;28;20791;-64
2022/03/24 13:44:57;;;;;;;18.80;14.50;;;;;;;;;;5053615;28;20904;-65
2022/03/24 13:47:25;;;;;;;23.67;15.00;;;;;;;;;;5054804;28;20440;-64
2022/03/24 13:49:56;;;;;;;21.80;15.73;;;;;;;;;;5054866;28;20919;-64
2022/03/24 13:52:41;;;;;;;20.73;15.03;;;;;;;;;;5054893;28;20483;-67
2022/03/24 13:55:11;;;;;;;24.37;15.87;;;;;;;;;;5054738;28;20484;-65
2022/03/24 13:57:56;;;;;;;22.30;16.03;;;;;;;;;;5054672;28;20420;-66
2022/03/24 14:00:30;;;;;;;26.70;15.40;;;;;;;;;;5054621;28;20398;-66
2022/03/24 14:02:59;;;;;;;20.20;15.00;;;;;;;;;;5054860;28;20441;-65
2022/03/24 14:05:43;;;;;;;22.70;13.60;;;;;;;;;;5054590;28;20441;-65
2022/03/24 14:08:09;;;;;;;23.40;15.50;;;;;;;;;;5053964;28;20473;-64
2022/03/24 14:10:42;;;;;;;21.53;14.67;;;;;;;;;;5054467;28;20406;-65
2022/03/24 14:13:13;;;;;;;22.13;13.90;;;;;;;;;;5054474;28;20413;-64
2022/03/24 14:15:39;;;;;;;19.27;14.47;;;;;;;;;;5054337;28;20402;-64
2022/03/24 14:18:19;;;;;;;19.70;14.37;;;;;;;;;;5053063;28;20408;-65
2022/03/24 14:20:47;;;;;;;21.47;14.30;;;;;;;;;;5054154;28;20481;-63